Time;durP1;ratioP1;P1;durP2;ratioP2;P2;SDS_P1;SDS_P2;PMS_P1;PMS_P2;Temp;Humidity;BMP_temperature;BMP_pressure;BME280_temperature;BME280_humidity;BME280_pressure;Samples;Min_cycle;Max_cycle;Signal;HPM_P1;HPM_P2
2021/08/20 00:01:01;;;;;;;4.00;3.03;;;18.40;99.90;;;;;;4913730;29;24451;-76
2021/08/20 00:03:26;;;;;;;3.95;3.30;;;18.40;99.90;;;;;;4912202;29;25031;-76
2021/08/20 00:05:54;;;;;;;3.50;3.00;;;18.40;99.90;;;;;;4910930;28;24999;-77
2021/08/20 00:08:19;;;;;;;5.82;3.63;;;18.40;99.90;;;;;;4911606;29;24602;-77
2021/08/20 00:10:45;;;;;;;6.40;3.60;;;18.40;99.90;;;;;;4911066;29;24781;-77
2021/08/20 00:13:11;;;;;;;3.60;3.30;;;18.40;99.90;;;;;;4911706;29;24943;-76
2021/08/20 00:15:37;;;;;;;4.65;3.40;;;18.40;99.90;;;;;;4911951;29;24443;-76
2021/08/20 00:18:02;;;;;;;4.60;3.50;;;18.40;99.90;;;;;;4911995;29;24434;-76
2021/08/20 00:20:28;;;;;;;4.72;3.70;;;18.40;99.90;;;;;;4914515;29;24529;-77
2021/08/20 00:23:01;;;;;;;4.50;3.40;;;18.40;99.90;;;;;;4907156;29;24439;-76
2021/08/20 00:25:31;;;;;;;4.82;3.22;;;18.30;99.90;;;;;;4918759;28;24431;-77
2021/08/20 00:27:59;;;;;;;3.85;3.10;;;18.30;99.90;;;;;;4911675;29;24981;-78
2021/08/20 00:30:25;;;;;;;4.22;3.28;;;18.30;99.90;;;;;;4916028;29;20800;-76
2021/08/20 00:32:50;;;;;;;4.20;3.60;;;18.30;99.90;;;;;;4919021;29;24498;-77
2021/08/20 00:35:16;;;;;;;3.70;3.28;;;18.30;99.90;;;;;;4915952;28;24866;-76
2021/08/20 00:37:41;;;;;;;5.97;3.40;;;18.30;99.90;;;;;;4915969;29;24446;-76
2021/08/20 00:40:08;;;;;;;4.33;3.67;;;18.20;99.90;;;;;;4917220;29;24530;-76
2021/08/20 00:42:33;;;;;;;4.87;3.63;;;18.20;99.90;;;;;;4914261;29;24423;-78
2021/08/20 00:45:01;;;;;;;4.32;3.42;;;18.20;99.90;;;;;;4913422;28;24561;-76
2021/08/20 00:47:27;;;;;;;4.45;3.90;;;18.20;99.90;;;;;;4915238;29;24545;-76
2021/08/20 00:49:55;;;;;;;4.90;3.80;;;18.20;99.90;;;;;;4914295;29;24458;-78
2021/08/20 00:52:24;;;;;;;5.53;3.83;;;18.10;99.90;;;;;;4916760;29;20802;-76
2021/08/20 00:54:49;;;;;;;5.40;4.00;;;18.10;99.90;;;;;;4919281;28;24612;-77
2021/08/20 00:57:21;;;;;;;5.50;4.30;;;18.20;99.90;;;;;;4912725;29;24517;-78
2021/08/20 00:59:48;;;;;;;4.47;3.92;;;18.10;99.90;;;;;;4928293;29;24647;-77
2021/08/20 01:02:19;;;;;;;5.80;4.70;;;18.00;99.90;;;;;;4915672;29;24446;-77
2021/08/20 01:04:47;;;;;;;7.15;4.50;;;18.00;99.90;;;;;;4910950;28;24430;-77
2021/08/20 01:07:17;;;;;;;4.95;4.30;;;17.90;99.90;;;;;;4914105;29;24423;-77
2021/08/20 01:09:44;;;;;;;5.47;4.60;;;17.90;99.90;;;;;;4917344;29;25006;-76
2021/08/20 01:12:10;;;;;;;5.60;4.70;;;17.90;99.90;;;;;;4913086;29;24460;-75
2021/08/20 01:14:38;;;;;;;5.80;4.65;;;17.90;99.90;;;;;;4912674;28;24497;-76
2021/08/20 01:17:06;;;;;;;5.93;4.38;;;17.80;99.90;;;;;;4918990;29;24464;-76
2021/08/20 01:19:35;;;;;;;6.38;4.80;;;17.80;99.90;;;;;;4911300;29;24438;-76
2021/08/20 01:22:02;;;;;;;5.13;4.43;;;17.80;99.90;;;;;;4913315;29;25166;-75
2021/08/20 01:24:28;;;;;;;5.50;4.50;;;17.80;99.90;;;;;;4913078;28;24842;-75
2021/08/20 01:26:54;;;;;;;6.07;4.50;;;17.70;99.90;;;;;;4911035;29;24860;-75
2021/08/20 01:29:24;;;;;;;7.75;5.20;;;17.70;99.90;;;;;;4912715;29;25237;-75
2021/08/20 01:31:53;;;;;;;5.10;4.60;;;17.70;99.90;;;;;;4919302;29;25007;-75
2021/08/20 01:34:19;;;;;;;6.47;4.55;;;17.70;99.90;;;;;;4913230;28;24429;-77
2021/08/20 01:36:45;;;;;;;5.00;4.40;;;17.70;99.90;;;;;;4914672;29;24956;-75
2021/08/20 01:39:10;;;;;;;5.67;4.90;;;17.70;99.90;;;;;;4918156;29;24463;-75
2021/08/20 01:41:36;;;;;;;7.80;4.85;;;17.70;99.90;;;;;;4914227;29;24456;-76
2021/08/20 01:44:04;;;;;;;7.67;4.90;;;17.70;99.90;;;;;;4916641;29;24442;-76
2021/08/20 01:46:33;;;;;;;4.95;4.45;;;17.70;99.90;;;;;;4911916;28;24451;-75
2021/08/20 01:49:00;;;;;;;7.45;5.00;;;17.60;99.90;;;;;;4916592;29;24443;-75
2021/08/20 01:51:30;;;;;;;5.93;4.68;;;17.70;99.90;;;;;;4920239;29;24483;-76
2021/08/20 01:54:02;;;;;;;6.63;4.13;;;17.60;99.90;;;;;;4917789;29;24435;-76
2021/08/20 01:56:33;;;;;;;6.30;5.38;;;17.60;99.90;;;;;;4914492;28;24442;-75
2021/08/20 01:59:08;;;;;;;5.22;4.72;;;17.60;99.90;;;;;;4927916;28;24715;-75
2021/08/20 02:01:35;;;;;;;5.50;5.00;;;17.60;99.90;;;;;;4918418;29;25042;-75
2021/08/20 02:04:06;;;;;;;5.30;4.80;;;17.70;99.90;;;;;;4922332;29;24458;-76
2021/08/20 02:06:34;;;;;;;6.93;4.63;;;17.70;99.90;;;;;;4921152;28;24950;-75
2021/08/20 02:09:03;;;;;;;5.53;4.80;;;17.70;99.90;;;;;;4921950;29;24530;-75
2021/08/20 02:11:33;;;;;;;5.88;4.90;;;17.70;99.90;;;;;;4918482;29;25014;-75
2021/08/20 02:13:59;;;;;;;6.18;4.93;;;17.70;99.90;;;;;;4919890;29;24470;-75
2021/08/20 02:16:24;;;;;;;6.10;5.20;;;17.70;99.90;;;;;;4921845;28;24423;-76
2021/08/20 02:18:50;;;;;;;5.40;4.90;;;17.70;99.90;;;;;;4920795;29;24607;-75
2021/08/20 02:21:17;;;;;;;5.67;5.07;;;17.70;99.90;;;;;;4913950;29;24468;-75
2021/08/20 02:23:43;;;;;;;6.30;5.03;;;17.70;99.90;;;;;;4915800;29;24431;-76
2021/08/20 02:26:11;;;;;;;5.77;5.17;;;17.70;99.90;;;;;;4917664;29;24609;-75
2021/08/20 02:28:36;;;;;;;7.63;5.95;;;17.70;99.90;;;;;;4920668;29;24989;-75
2021/08/20 02:31:06;;;;;;;6.97;5.43;;;17.70;99.90;;;;;;4913158;29;24458;-75
2021/08/20 02:33:34;;;;;;;7.13;6.10;;;17.70;99.90;;;;;;4921215;29;24542;-75
2021/08/20 02:36:02;;;;;;;7.72;5.82;;;17.70;99.90;;;;;;4916715;28;24450;-75
2021/08/20 02:38:30;;;;;;;6.60;5.85;;;17.70;99.90;;;;;;4913260;29;24450;-75
2021/08/20 02:40:55;;;;;;;7.47;6.30;;;17.60;99.90;;;;;;4912438;29;24565;-75
2021/08/20 02:43:26;;;;;;;7.30;5.90;;;17.60;99.90;;;;;;4917620;29;24581;-74
2021/08/20 02:45:56;;;;;;;6.68;6.00;;;17.60;99.90;;;;;;4925597;28;24431;-75
2021/08/20 02:48:23;;;;;;;6.95;6.00;;;17.60;99.90;;;;;;4912962;29;24603;-74
2021/08/20 02:50:48;;;;;;;7.13;6.20;;;17.60;99.90;;;;;;4921252;29;24844;-74
2021/08/20 02:53:14;;;;;;;7.00;6.07;;;17.60;99.90;;;;;;4911976;29;24431;-75
2021/08/20 02:55:40;;;;;;;7.57;6.68;;;17.50;99.90;;;;;;4909447;29;24793;-75
2021/08/20 02:58:06;;;;;;;8.18;6.50;;;17.50;99.90;;;;;;4911294;29;25033;-75
2021/08/20 03:00:31;;;;;;;7.93;6.40;;;17.50;99.90;;;;;;4919779;29;24443;-75
2021/08/20 03:02:57;;;;;;;9.20;6.55;;;17.50;99.90;;;;;;4913378;29;24526;-76
2021/08/20 03:05:25;;;;;;;8.50;6.80;;;17.50;99.90;;;;;;4912601;28;24438;-75
2021/08/20 03:07:51;;;;;;;7.30;6.50;;;17.50;99.90;;;;;;4919939;29;24435;-75
2021/08/20 03:10:16;;;;;;;8.98;6.60;;;17.50;99.90;;;;;;4915576;29;26139;-76
2021/08/20 03:12:42;;;;;;;8.70;6.90;;;17.50;99.90;;;;;;4912706;29;24521;-75
2021/08/20 03:15:08;;;;;;;8.05;6.90;;;17.50;99.90;;;;;;4916579;28;24947;-75
2021/08/20 03:17:34;;;;;;;8.95;7.38;;;17.50;99.90;;;;;;4914156;29;24556;-76
2021/08/20 03:19:59;;;;;;;8.03;7.13;;;17.50;99.90;;;;;;4914749;29;24485;-75
2021/08/20 03:22:25;;;;;;;9.23;6.90;;;17.50;99.90;;;;;;4921951;29;25041;-75
2021/08/20 03:24:50;;;;;;;8.30;7.30;;;17.50;99.90;;;;;;4909408;29;24471;-75
2021/08/20 03:27:19;;;;;;;9.73;7.55;;;17.40;99.90;;;;;;4917274;29;24485;-75
2021/08/20 03:29:51;;;;;;;8.85;7.50;;;17.30;99.90;;;;;;4919397;29;24443;-75
2021/08/20 03:32:20;;;;;;;9.05;7.20;;;17.30;99.90;;;;;;4915580;29;24531;-75
2021/08/20 03:34:50;;;;;;;9.57;7.60;;;17.20;99.90;;;;;;4912502;28;24435;-75
2021/08/20 03:37:15;;;;;;;8.97;7.50;;;17.20;99.90;;;;;;4912982;29;24466;-75
2021/08/20 03:39:41;;;;;;;9.27;7.85;;;17.20;99.90;;;;;;4913103;29;24484;-78
2021/08/20 03:42:06;;;;;;;8.30;7.40;;;17.20;99.90;;;;;;4929049;28;24466;-75
2021/08/20 03:44:32;;;;;;;10.52;8.32;;;17.20;99.90;;;;;;4912125;28;24482;-75
2021/08/20 03:46:58;;;;;;;10.00;8.10;;;17.10;99.90;;;;;;4911007;29;24439;-75
2021/08/20 03:49:23;;;;;;;8.67;7.40;;;17.10;99.90;;;;;;4914709;29;24475;-75
2021/08/20 03:51:49;;;;;;;10.00;8.17;;;17.10;99.90;;;;;;4918651;29;24482;-75
2021/08/20 03:54:14;;;;;;;9.17;8.23;;;17.20;99.90;;;;;;4918590;29;24536;-75
2021/08/20 03:56:42;;;;;;;8.60;7.55;;;17.10;99.90;;;;;;4911266;28;24475;-76
2021/08/20 03:59:08;;;;;;;9.52;8.07;;;17.10;99.90;;;;;;4912521;29;24453;-75
2021/08/20 04:01:33;;;;;;;10.20;8.30;;;17.10;99.90;;;;;;4919197;29;24435;-77
2021/08/20 04:03:59;;;;;;;8.90;7.88;;;17.00;99.90;;;;;;4911932;29;25010;-76
2021/08/20 04:06:24;;;;;;;9.07;7.50;;;17.00;99.90;;;;;;4908619;29;24478;-76
2021/08/20 04:08:52;;;;;;;8.30;7.17;;;17.00;99.90;;;;;;4905787;29;24773;-76
2021/08/20 04:11:27;;;;;;;9.00;7.57;;;17.00;99.90;;;;;;4911395;29;25074;-76
2021/08/20 04:13:55;;;;;;;9.77;7.93;;;16.90;99.90;;;;;;4915686;29;24447;-76
2021/08/20 04:16:21;;;;;;;9.32;7.40;;;17.00;99.90;;;;;;4910821;28;24529;-76
2021/08/20 04:18:46;;;;;;;9.00;7.70;;;17.00;99.90;;;;;;4914926;29;24442;-76
2021/08/20 04:21:14;;;;;;;9.75;7.20;;;17.00;99.90;;;;;;4912191;29;27110;-76
2021/08/20 04:23:42;;;;;;;8.43;6.93;;;17.00;99.90;;;;;;4914363;29;24435;-77
2021/08/20 04:26:10;;;;;;;8.25;7.03;;;17.00;99.90;;;;;;4915333;28;24451;-76
2021/08/20 04:28:36;;;;;;;8.35;7.10;;;17.10;99.90;;;;;;4925896;29;24446;-77
2021/08/20 04:31:01;;;;;;;8.48;7.35;;;17.10;99.90;;;;;;4931083;29;25097;-75
2021/08/20 04:33:27;;;;;;;8.20;7.30;;;17.10;99.90;;;;;;4925426;29;24470;-77
2021/08/20 04:35:54;;;;;;;8.20;7.20;;;17.20;99.90;;;;;;4916669;28;24423;-76
2021/08/20 04:38:20;;;;;;;9.15;7.60;;;17.20;99.90;;;;;;4911911;29;24482;-76
2021/08/20 04:40:48;;;;;;;8.00;6.67;;;17.20;99.90;;;;;;4899395;29;24442;-76
2021/08/20 04:43:16;;;;;;;8.30;6.72;;;17.20;99.90;;;;;;4912196;29;24466;-76
2021/08/20 04:45:42;;;;;;;9.38;7.70;;;17.20;99.90;;;;;;4917836;29;24434;-76
2021/08/20 04:48:12;;;;;;;8.60;7.40;;;17.20;99.90;;;;;;4916062;29;24505;-75
2021/08/20 04:50:45;;;;;;;8.00;7.20;;;17.20;99.90;;;;;;4911769;29;24506;-77
2021/08/20 04:53:10;;;;;;;8.40;6.93;;;17.20;99.90;;;;;;4911575;29;24452;-77
2021/08/20 04:55:36;;;;;;;8.13;7.13;;;17.20;99.90;;;;;;4908756;28;24463;-76
2021/08/20 04:58:01;;;;;;;8.50;7.40;;;17.30;99.90;;;;;;4906914;29;24788;-77
2021/08/20 05:00:27;;;;;;;9.65;7.60;;;17.30;99.90;;;;;;4911542;29;24443;-78
2021/08/20 05:02:52;;;;;;;8.50;7.70;;;17.30;99.90;;;;;;4912472;29;24438;-77
2021/08/20 05:05:18;;;;;;;8.88;7.68;;;17.30;99.90;;;;;;4913837;28;24454;-77
2021/08/20 05:07:44;;;;;;;8.30;7.50;;;17.10;99.90;;;;;;4914677;29;24439;-76
2021/08/20 05:10:12;;;;;;;7.97;7.18;;;17.30;99.90;;;;;;4929635;29;24808;-77
2021/08/20 05:12:42;;;;;;;8.68;7.78;;;17.30;99.90;;;;;;4919586;29;24658;-77
2021/08/20 05:15:09;;;;;;;9.48;7.53;;;17.30;99.90;;;;;;4917978;28;25312;-77
2021/08/20 05:17:39;;;;;;;8.20;7.40;;;17.30;99.90;;;;;;4916213;29;24559;-77
2021/08/20 05:20:08;;;;;;;8.00;7.30;;;17.30;99.90;;;;;;4914659;29;24467;-77
2021/08/20 05:22:49;;;;;;;8.05;7.25;;;17.30;99.90;;;;;;4915008;29;24458;-77
2021/08/20 05:25:15;;;;;;;8.68;7.60;;;17.30;99.90;;;;;;4914525;28;25023;-77
2021/08/20 05:27:41;;;;;;;8.90;7.25;;;17.30;99.90;;;;;;4914405;29;24499;-76
2021/08/20 05:30:07;;;;;;;7.97;6.57;;;17.30;99.90;;;;;;4928994;28;24550;-76
2021/08/20 05:32:33;;;;;;;7.53;6.82;;;17.30;99.90;;;;;;4917331;29;24529;-77
2021/08/20 05:35:01;;;;;;;7.78;6.97;;;17.20;99.90;;;;;;4923086;28;24454;-75
2021/08/20 05:37:30;;;;;;;7.30;6.70;;;17.20;99.90;;;;;;4919894;29;24518;-76
2021/08/20 05:40:03;;;;;;;8.40;7.10;;;17.10;99.90;;;;;;4920638;29;24470;-77
2021/08/20 05:42:31;;;;;;;7.30;6.60;;;17.20;99.90;;;;;;4923449;29;24526;-76
2021/08/20 05:44:56;;;;;;;7.85;7.15;;;17.20;99.90;;;;;;4920403;29;24438;-76
2021/08/20 05:47:23;;;;;;;7.80;7.05;;;17.20;99.90;;;;;;4920051;29;24955;-78
2021/08/20 05:49:49;;;;;;;8.38;6.95;;;17.30;99.90;;;;;;4937357;29;25188;-77
2021/08/20 05:52:16;;;;;;;8.20;7.40;;;17.30;99.90;;;;;;4921255;29;25070;-77
2021/08/20 05:54:41;;;;;;;7.80;7.10;;;17.30;99.90;;;;;;4922225;28;25033;-76
2021/08/20 05:57:07;;;;;;;8.80;7.93;;;17.30;99.90;;;;;;4940118;29;24427;-76
2021/08/20 05:59:32;;;;;;;8.40;7.60;;;17.40;99.90;;;;;;4924556;29;24495;-76
2021/08/20 06:01:58;;;;;;;8.80;7.90;;;17.40;99.90;;;;;;4924588;29;24426;-76
2021/08/20 06:04:23;;;;;;;8.77;7.90;;;17.40;99.90;;;;;;4931074;28;24435;-77
2021/08/20 06:06:49;;;;;;;9.30;8.33;;;17.50;99.90;;;;;;4926141;29;24435;-77
2021/08/20 06:09:15;;;;;;;9.45;8.45;;;17.50;99.90;;;;;;4916402;29;24512;-76
2021/08/20 06:11:43;;;;;;;9.43;8.52;;;17.50;99.90;;;;;;4918075;29;25037;-77
2021/08/20 06:14:11;;;;;;;9.50;8.60;;;17.50;99.90;;;;;;4922850;29;24426;-77
2021/08/20 06:16:37;;;;;;;9.82;8.93;;;17.50;99.90;;;;;;4921727;28;24979;-76
2021/08/20 06:19:02;;;;;;;10.27;9.20;;;17.50;99.90;;;;;;4928854;29;24440;-77
2021/08/20 06:21:30;;;;;;;10.50;9.25;;;17.40;99.90;;;;;;4922388;29;24987;-77
2021/08/20 06:23:56;;;;;;;9.90;9.00;;;17.40;99.90;;;;;;4920461;29;24431;-77
2021/08/20 06:26:22;;;;;;;10.10;9.10;;;17.50;99.90;;;;;;4917436;29;24430;-76
2021/08/20 06:28:47;;;;;;;9.70;8.80;;;17.40;99.90;;;;;;4927002;29;24431;-77
2021/08/20 06:31:13;;;;;;;9.30;8.40;;;17.50;99.90;;;;;;4928972;29;24506;-77
2021/08/20 06:33:41;;;;;;;8.10;7.40;;;17.50;99.90;;;;;;4921793;29;25050;-77
2021/08/20 06:36:06;;;;;;;7.75;7.15;;;17.50;99.90;;;;;;4918857;28;24438;-77
2021/08/20 06:38:32;;;;;;;7.90;7.10;;;17.50;99.90;;;;;;4925521;29;24431;-77
2021/08/20 06:40:58;;;;;;;9.40;7.37;;;17.40;99.90;;;;;;4923776;29;25062;-77
2021/08/20 06:43:23;;;;;;;7.80;7.10;;;17.40;99.90;;;;;;4920923;29;24435;-77
2021/08/20 06:45:49;;;;;;;6.80;6.20;;;17.40;99.90;;;;;;4932914;28;24483;-76
2021/08/20 06:48:16;;;;;;;8.55;7.30;;;17.50;99.90;;;;;;4926186;29;25301;-77
2021/08/20 06:50:44;;;;;;;8.60;7.68;;;17.50;99.90;;;;;;4919669;29;24542;-77
2021/08/20 06:53:11;;;;;;;9.20;7.82;;;17.60;99.90;;;;;;4920911;29;25065;-77
2021/08/20 06:55:37;;;;;;;9.90;8.90;;;17.60;99.90;;;;;;4915969;29;24434;-77
2021/08/20 06:58:03;;;;;;;10.32;9.15;;;17.60;99.90;;;;;;4919650;29;24821;-77
2021/08/20 07:00:28;;;;;;;10.73;8.60;;;17.60;99.90;;;;;;4920811;29;24863;-77
2021/08/20 07:02:54;;;;;;;8.30;7.47;;;17.60;99.90;;;;;;4918576;29;24446;-77
2021/08/20 07:05:19;;;;;;;8.07;6.53;;;17.60;99.90;;;;;;4920321;28;24470;-77
2021/08/20 07:07:46;;;;;;;8.53;7.10;;;17.60;99.90;;;;;;4919600;29;25073;-77
2021/08/20 07:10:23;;;;;;;7.47;6.77;;;17.60;99.90;;;;;;4926224;29;24995;-77
2021/08/20 07:12:48;;;;;;;8.10;6.82;;;17.60;99.90;;;;;;4920809;29;24422;-77
2021/08/20 07:15:14;;;;;;;9.18;7.25;;;17.60;99.90;;;;;;4923975;29;24450;-77
2021/08/20 07:17:40;;;;;;;8.30;7.50;;;17.60;99.90;;;;;;4920507;29;24476;-76
2021/08/20 07:20:07;;;;;;;8.18;7.38;;;17.70;99.90;;;;;;4920760;29;24438;-77
2021/08/20 07:22:32;;;;;;;7.97;6.80;;;17.70;99.90;;;;;;4919747;29;24443;-77
2021/08/20 07:24:58;;;;;;;9.50;7.43;;;17.70;99.90;;;;;;4918257;28;24497;-76
2021/08/20 07:27:23;;;;;;;7.90;7.10;;;17.80;99.90;;;;;;4918447;29;24809;-77
2021/08/20 07:29:50;;;;;;;8.00;7.20;;;17.80;99.90;;;;;;4924882;29;24465;-77
2021/08/20 07:32:15;;;;;;;9.43;8.43;;;17.80;99.90;;;;;;4919599;29;24455;-77
2021/08/20 07:34:42;;;;;;;8.88;8.07;;;17.80;99.90;;;;;;4919013;28;24498;-77
2021/08/20 07:37:07;;;;;;;10.55;9.55;;;17.90;99.90;;;;;;4920168;29;25102;-77
2021/08/20 07:39:36;;;;;;;11.68;10.68;;;17.80;99.90;;;;;;4918856;29;24534;-77
2021/08/20 07:42:02;;;;;;;11.50;10.50;;;17.80;99.90;;;;;;4922645;29;24431;-77
2021/08/20 07:44:27;;;;;;;12.13;11.02;;;17.70;99.90;;;;;;4918964;28;24442;-77
2021/08/20 07:46:55;;;;;;;11.63;10.63;;;17.70;99.90;;;;;;4921260;29;24437;-77
2021/08/20 07:49:23;;;;;;;11.50;10.50;;;17.60;99.90;;;;;;4919401;29;24451;-76
2021/08/20 07:51:49;;;;;;;10.60;9.60;;;17.60;99.90;;;;;;4920686;29;24455;-77
2021/08/20 07:54:15;;;;;;;9.70;8.90;;;17.60;99.90;;;;;;4921777;29;24447;-76
2021/08/20 07:56:40;;;;;;;7.72;7.13;;;17.60;99.90;;;;;;4920040;28;24482;-78
2021/08/20 07:59:06;;;;;;;6.37;5.87;;;17.50;99.90;;;;;;4921681;29;24422;-77
2021/08/20 08:01:34;;;;;;;5.53;5.07;;;17.60;99.90;;;;;;4921390;29;24419;-77
2021/08/20 08:03:59;;;;;;;5.18;4.78;;;17.60;99.90;;;;;;4925129;29;24437;-77
2021/08/20 08:06:26;;;;;;;4.40;4.10;;;17.70;99.90;;;;;;4920763;28;24517;-77
2021/08/20 08:08:52;;;;;;;4.50;4.20;;;17.70;99.90;;;;;;4925781;29;25049;-77
2021/08/20 08:11:18;;;;;;;4.95;4.55;;;17.70;99.90;;;;;;4920281;29;24472;-77
2021/08/20 08:13:44;;;;;;;4.78;4.40;;;17.80;99.90;;;;;;4919649;29;24862;-77
2021/08/20 08:16:10;;;;;;;4.90;4.50;;;17.80;99.90;;;;;;4920817;28;25291;-77
2021/08/20 08:18:35;;;;;;;4.55;4.25;;;17.80;99.90;;;;;;4918248;29;24423;-77
2021/08/20 08:21:01;;;;;;;4.70;4.40;;;17.90;99.90;;;;;;4925390;29;24494;-77
2021/08/20 08:23:27;;;;;;;4.90;4.50;;;17.90;99.90;;;;;;4921959;29;25026;-77
2021/08/20 08:25:53;;;;;;;4.70;4.40;;;17.90;99.90;;;;;;4920120;28;24423;-77
2021/08/20 08:28:22;;;;;;;5.50;5.00;;;17.90;99.90;;;;;;4920355;29;24990;-77
2021/08/20 08:30:49;;;;;;;5.38;4.97;;;17.90;99.90;;;;;;4919210;29;24535;-77
2021/08/20 08:33:15;;;;;;;5.25;4.85;;;18.00;99.90;;;;;;4919638;29;24873;-77
2021/08/20 08:35:41;;;;;;;5.57;5.18;;;18.10;99.90;;;;;;4919684;28;24430;-79
2021/08/20 08:38:12;;;;;;;5.90;5.40;;;18.20;99.90;;;;;;4922044;29;24423;-78
2021/08/20 08:40:39;;;;;;;5.30;4.90;;;18.30;99.90;;;;;;4921415;29;24562;-77
2021/08/20 08:43:07;;;;;;;5.50;5.10;;;18.30;99.90;;;;;;4921148;29;24827;-77
2021/08/20 08:45:33;;;;;;;5.70;5.20;;;18.30;99.90;;;;;;4919267;29;25161;-77
2021/08/20 08:48:02;;;;;;;6.20;5.70;;;18.30;99.90;;;;;;4917349;29;24461;-77
2021/08/20 08:50:29;;;;;;;5.60;5.20;;;18.30;99.90;;;;;;4924846;29;24884;-77
2021/08/20 08:52:54;;;;;;;7.20;6.60;;;18.40;99.90;;;;;;4924231;29;24497;-77
2021/08/20 08:55:22;;;;;;;6.93;6.32;;;18.50;99.90;;;;;;4923859;28;24515;-77
2021/08/20 08:57:48;;;;;;;6.60;6.10;;;18.60;99.90;;;;;;4924069;29;24784;-77
2021/08/20 09:00:14;;;;;;;7.60;6.90;;;18.60;99.90;;;;;;4925224;29;24450;-77
2021/08/20 09:02:39;;;;;;;7.30;6.70;;;18.60;99.90;;;;;;4922960;29;24483;-78
2021/08/20 09:05:10;;;;;;;7.68;6.97;;;18.70;99.90;;;;;;4925211;28;24414;-77
2021/08/20 09:07:37;;;;;;;8.13;7.43;;;18.70;99.90;;;;;;4931052;29;24463;-77
2021/08/20 09:10:35;;;;;;;8.07;7.28;;;18.70;99.90;;;;;;4925602;29;24527;-77
2021/08/20 09:13:03;;;;;;;7.47;6.78;;;18.80;99.90;;;;;;4922464;29;24453;-77
2021/08/20 09:15:31;;;;;;;6.88;6.28;;;18.80;99.90;;;;;;4922854;28;24526;-77
2021/08/20 09:17:59;;;;;;;7.20;6.50;;;18.80;99.90;;;;;;4924193;29;24455;-77
2021/08/20 09:20:26;;;;;;;7.65;6.95;;;18.70;99.90;;;;;;4929974;29;24443;-77
2021/08/20 09:22:53;;;;;;;7.70;7.00;;;18.80;99.90;;;;;;4924643;29;24523;-77
2021/08/20 09:25:38;;;;;;;8.25;7.55;;;18.80;99.90;;;;;;4922678;29;24804;-77
2021/08/20 09:28:10;;;;;;;8.10;7.40;;;18.70;99.90;;;;;;4937672;29;24435;-76
2021/08/20 09:30:37;;;;;;;9.30;8.40;;;18.90;99.90;;;;;;4948033;29;24463;-77
2021/08/20 09:33:08;;;;;;;9.43;8.43;;;18.90;99.90;;;;;;4944980;29;24467;-77
2021/08/20 09:35:38;;;;;;;10.68;9.68;;;18.90;99.90;;;;;;4933692;28;24798;-76
2021/08/20 09:38:12;;;;;;;10.35;9.38;;;19.00;99.90;;;;;;4929660;29;24506;-77
2021/08/20 09:40:47;;;;;;;9.68;8.77;;;19.10;99.90;;;;;;4924887;29;24486;-77
2021/08/20 09:43:21;;;;;;;10.30;9.40;;;19.10;99.90;;;;;;4919953;29;24499;-77
2021/08/20 09:46:00;;;;;;;9.93;9.02;;;19.10;99.90;;;;;;4928716;28;24439;-79
2021/08/20 09:48:50;;;;;;;9.73;8.82;;;19.20;99.90;;;;;;4923936;29;24498;-77
2021/08/20 09:51:30;;;;;;;9.57;8.73;;;19.20;99.90;;;;;;4922911;29;24978;-76
2021/08/20 09:54:00;;;;;;;11.93;10.93;;;19.20;99.90;;;;;;4924024;29;24419;-77
2021/08/20 09:56:29;;;;;;;12.43;11.32;;;19.20;99.90;;;;;;4921833;28;24431;-77
2021/08/20 09:58:58;;;;;;;12.35;11.25;;;19.20;99.90;;;;;;4924045;29;24528;-77
2021/08/20 10:01:26;;;;;;;12.88;11.68;;;19.20;99.90;;;;;;4925203;29;24582;-77
2021/08/20 10:03:52;;;;;;;14.10;12.70;;;19.20;99.90;;;;;;4920997;29;24836;-77
2021/08/20 10:06:18;;;;;;;14.20;12.90;;;19.20;99.90;;;;;;4922760;28;24434;-77
2021/08/20 10:08:44;;;;;;;13.10;12.00;;;19.20;99.90;;;;;;4923364;29;24593;-77
2021/08/20 10:11:15;;;;;;;15.10;13.67;;;19.20;99.90;;;;;;4924538;29;24589;-77
2021/08/20 10:13:42;;;;;;;14.52;13.32;;;19.20;99.90;;;;;;4922480;29;24424;-77
2021/08/20 10:16:10;;;;;;;14.52;13.23;;;19.20;99.90;;;;;;4919435;28;24489;-77
2021/08/20 10:18:37;;;;;;;14.90;13.60;;;19.10;99.90;;;;;;4936709;28;24785;-76
2021/08/20 10:21:03;;;;;;;15.23;13.83;;;19.10;99.90;;;;;;4922582;29;24437;-77
2021/08/20 10:23:32;;;;;;;14.80;13.40;;;19.10;99.90;;;;;;4925068;29;24782;-77
2021/08/20 10:25:57;;;;;;;15.02;13.73;;;19.10;99.90;;;;;;4920879;28;24574;-77
2021/08/20 10:28:24;;;;;;;12.13;11.03;;;19.10;99.90;;;;;;4927094;29;24518;-78
2021/08/20 10:30:50;;;;;;;13.90;12.70;;;19.10;99.90;;;;;;4925084;29;24435;-78
2021/08/20 10:33:30;;;;;;;14.40;13.00;;;19.10;99.90;;;;;;4920726;29;24439;-77
2021/08/20 10:35:56;;;;;;;15.05;13.63;;;19.20;99.90;;;;;;4919306;29;24544;-78
2021/08/20 10:38:24;;;;;;;14.20;12.97;;;19.30;99.90;;;;;;4924680;29;24429;-78
2021/08/20 10:41:05;;;;;;;14.40;13.10;;;19.40;99.90;;;;;;4921653;29;24517;-78
2021/08/20 10:43:58;;;;;;;14.40;13.00;;;19.60;99.90;;;;;;4924002;29;24620;-78
2021/08/20 10:46:36;;;;;;;13.30;12.10;;;19.80;99.90;;;;;;4922725;28;24762;-78
2021/08/20 10:49:11;;;;;;;12.07;11.07;;;20.00;99.90;;;;;;4924151;29;24993;-78
2021/08/20 10:51:58;;;;;;;11.52;10.52;;;20.10;99.90;;;;;;4927568;29;25026;-77
2021/08/20 10:54:33;;;;;;;11.70;10.60;;;20.10;99.90;;;;;;4923856;28;24429;-78
2021/08/20 10:57:03;;;;;;;11.73;10.73;;;20.20;99.90;;;;;;4922430;29;24466;-77
2021/08/20 10:59:43;;;;;;;12.75;11.60;;;20.20;99.90;;;;;;4922148;29;24443;-78
2021/08/20 11:02:18;;;;;;;12.60;11.50;;;20.10;99.90;;;;;;4922833;29;24495;-78
2021/08/20 11:05:03;;;;;;;12.88;11.77;;;20.20;99.90;;;;;;4920676;28;25110;-78
2021/08/20 11:07:41;;;;;;;13.52;12.32;;;20.30;99.90;;;;;;4922699;29;24438;-78
2021/08/20 11:10:09;;;;;;;13.90;12.63;;;20.40;99.90;;;;;;4927556;29;24435;-79
2021/08/20 11:12:37;;;;;;;14.13;12.82;;;20.50;99.90;;;;;;4918793;29;24955;-77
2021/08/20 11:15:20;;;;;;;13.00;11.80;;;20.50;99.90;;;;;;4919801;28;24416;-77
2021/08/20 11:17:48;;;;;;;13.17;11.97;;;20.50;99.90;;;;;;4923035;29;24966;-77
2021/08/20 11:20:25;;;;;;;13.77;12.57;;;20.60;99.90;;;;;;4923907;29;24475;-79
2021/08/20 11:23:12;;;;;;;13.60;12.30;;;20.60;99.90;;;;;;4924416;29;24415;-78
2021/08/20 11:25:38;;;;;;;13.05;11.95;;;20.70;99.90;;;;;;4919161;28;24423;-77
2021/08/20 11:28:07;;;;;;;12.83;11.60;;;20.70;99.90;;;;;;4926870;29;24446;-78
2021/08/20 11:30:39;;;;;;;12.10;11.10;;;20.70;99.90;;;;;;4921261;29;24451;-77
2021/08/20 11:33:07;;;;;;;12.50;11.50;;;20.80;99.90;;;;;;4925359;29;24445;-78
2021/08/20 11:35:33;;;;;;;12.50;11.40;;;21.00;99.90;;;;;;4924190;29;24522;-78
2021/08/20 11:37:58;;;;;;;11.10;10.10;;;21.20;99.90;;;;;;4924586;29;24522;-78
2021/08/20 11:40:24;;;;;;;11.13;10.23;;;21.30;99.90;;;;;;4924167;29;24437;-78
2021/08/20 11:43:10;;;;;;;10.80;9.90;;;21.40;99.90;;;;;;4925642;29;24463;-77
2021/08/20 11:45:37;;;;;;;11.00;10.10;;;21.50;99.90;;;;;;4922051;28;24437;-79
2021/08/20 11:48:03;;;;;;;9.90;9.00;;;21.30;99.90;;;;;;4926518;29;24433;-78
2021/08/20 11:50:30;;;;;;;9.00;8.30;;;21.30;99.90;;;;;;4939410;28;24460;-78
2021/08/20 11:52:57;;;;;;;9.97;9.17;;;21.20;99.90;;;;;;4927149;29;24427;-77
2021/08/20 11:55:23;;;;;;;11.45;10.55;;;21.20;99.90;;;;;;4923869;28;24497;-77
2021/08/20 11:57:51;;;;;;;11.70;10.70;;;21.10;99.90;;;;;;4922537;29;24839;-77
2021/08/20 12:00:17;;;;;;;12.63;11.52;;;21.10;99.90;;;;;;4930695;29;24579;-75
2021/08/20 12:02:44;;;;;;;12.97;11.87;;;21.00;99.90;;;;;;4916915;28;24439;-81
2021/08/20 12:05:23;;;;;;;12.20;11.20;;;20.70;99.90;;;;;;4916190;28;24427;-75
2021/08/20 12:07:49;;;;;;;12.10;11.10;;;20.60;99.90;;;;;;4919768;29;24530;-75
2021/08/20 12:10:16;;;;;;;11.50;10.60;;;20.50;99.90;;;;;;4920156;29;24533;-76
2021/08/20 12:12:46;;;;;;;11.80;10.82;;;20.50;99.90;;;;;;4927006;29;24434;-81
2021/08/20 12:15:13;;;;;;;11.73;10.73;;;20.40;99.90;;;;;;4921927;28;24486;-81
2021/08/20 12:17:39;;;;;;;12.30;11.30;;;20.40;99.90;;;;;;4923991;29;24438;-79
2021/08/20 12:20:22;;;;;;;12.65;11.55;;;20.40;99.90;;;;;;4918681;29;24574;-79
2021/08/20 12:22:53;;;;;;;12.13;11.13;;;20.40;99.90;;;;;;4923893;28;24477;-77
2021/08/20 12:25:24;;;;;;;10.30;9.50;;;20.50;99.90;;;;;;4912643;28;24449;-76
2021/08/20 12:27:53;;;;;;;10.65;9.75;;;20.50;99.90;;;;;;4923341;29;24442;-75
2021/08/20 12:30:24;;;;;;;10.15;9.35;;;20.40;99.90;;;;;;4918911;29;24573;-76
2021/08/20 12:32:55;;;;;;;9.35;8.65;;;20.50;99.90;;;;;;4914561;29;24527;-76
2021/08/20 12:35:24;;;;;;;8.57;7.82;;;20.60;99.90;;;;;;4925102;28;24447;-77
2021/08/20 12:38:23;;;;;;;7.80;7.20;;;20.70;99.90;;;;;;4936370;28;24431;-79
2021/08/20 12:40:50;;;;;;;7.43;6.82;;;20.80;99.90;;;;;;4933313;28;24439;-75
2021/08/20 12:43:36;;;;;;;7.50;6.90;;;20.70;99.90;;;;;;4916459;29;24535;-76
2021/08/20 12:46:03;;;;;;;6.90;6.25;;;20.70;99.90;;;;;;4914939;29;24572;-76
2021/08/20 12:48:28;;;;;;;7.70;7.00;;;20.70;99.90;;;;;;4920801;29;24850;-79